createdAt,value
2023-05-15T00:01:56.429Z,19.93
2023-05-15T00:07:41.388Z,19.9
2023-05-15T00:13:28.872Z,19.87
2023-05-15T00:19:13.725Z,19.79
2023-05-15T00:24:59.691Z,19.7
2023-05-15T00:30:44.463Z,19.66
2023-05-15T00:36:29.093Z,19.58
2023-05-15T00:42:15.300Z,19.53
2023-05-15T00:48:00.833Z,19.46
2023-05-15T00:53:45.904Z,19.43
2023-05-15T00:59:31.685Z,19.39
2023-05-15T01:05:16.350Z,19.35
2023-05-15T01:11:02.749Z,19.33
2023-05-15T01:16:47.381Z,19.33
2023-05-15T01:22:40.651Z,19.26
2023-05-15T01:28:27.820Z,19.23
2023-05-15T01:34:13.185Z,19.18
2023-05-15T01:40:00.938Z,19.12
2023-05-15T01:45:45.592Z,19.09
2023-05-15T01:51:31.185Z,19.01
2023-05-15T01:57:17.906Z,18.95
2023-05-15T02:03:05.499Z,18.91
2023-05-15T02:08:51.190Z,18.87
2023-05-15T02:14:37.100Z,18.89
2023-05-15T02:20:21.778Z,18.82
2023-05-15T02:26:13.964Z,18.74
2023-05-15T02:32:03.292Z,18.7
2023-05-15T02:37:52.291Z,18.67
2023-05-15T02:43:39.530Z,18.65
2023-05-15T02:49:24.709Z,18.6
2023-05-15T02:55:10.106Z,18.56
2023-05-15T03:00:55.834Z,18.48
2023-05-15T03:06:40.861Z,18.44
2023-05-15T03:12:25.483Z,18.43
2023-05-15T03:18:10.232Z,18.42
2023-05-15T03:23:56.692Z,18.4
2023-05-15T03:29:41.828Z,18.4
2023-05-15T03:35:26.580Z,18.36
2023-05-15T03:41:11.419Z,18.35
2023-05-15T03:46:56.490Z,18.38
2023-05-15T03:52:42.393Z,18.36
2023-05-15T03:58:27.159Z,18.35
2023-05-15T04:04:11.992Z,18.32
2023-05-15T04:09:56.585Z,18.31
2023-05-15T04:15:41.611Z,18.3
2023-05-15T04:21:26.209Z,18.29
2023-05-15T04:27:11.015Z,18.3
2023-05-15T04:32:55.832Z,18.32
2023-05-15T04:38:40.869Z,18.32
2023-05-15T04:44:25.580Z,18.36
2023-05-15T04:50:11.180Z,18.37
2023-05-15T04:55:55.913Z,18.44
2023-05-15T05:01:40.720Z,18.49
2023-05-15T05:07:25.477Z,18.53
2023-05-15T05:13:10.000Z,18.79
2023-05-15T05:18:54.687Z,18.8
2023-05-15T05:24:39.568Z,18.79
2023-05-15T05:30:24.321Z,18.84
2023-05-15T05:36:09.628Z,18.91
2023-05-15T05:41:54.352Z,18.96
2023-05-15T05:47:38.865Z,19.07
2023-05-15T05:53:23.657Z,19.16
2023-05-15T05:59:08.455Z,19.22
2023-05-15T06:04:53.341Z,19.33
2023-05-15T06:10:38.232Z,19.43
2023-05-15T06:16:23.280Z,19.54
2023-05-15T06:22:08.745Z,19.71
2023-05-15T06:27:53.396Z,19.82
2023-05-15T06:33:38.277Z,19.91
2023-05-15T06:39:23.186Z,20.05
2023-05-15T06:45:08.969Z,20.23
2023-05-15T06:50:54.950Z,20.13
2023-05-15T06:56:39.757Z,20.13
2023-05-15T07:02:24.459Z,20.1
2023-05-15T07:08:09.527Z,20.12
2023-05-15T07:13:54.256Z,20.38
2023-05-15T07:19:39.089Z,20.46
2023-05-15T07:25:24.238Z,20.42
2023-05-15T07:31:10.362Z,20.49
2023-05-15T07:36:55.480Z,20.53
2023-05-15T07:42:40.173Z,20.54
2023-05-15T07:48:24.948Z,20.57
2023-05-15T07:54:09.825Z,20.62
2023-05-15T07:59:56.477Z,20.88
2023-05-15T08:05:41.124Z,20.9
2023-05-15T08:11:25.635Z,20.96
2023-05-15T08:17:10.282Z,21.24
2023-05-15T08:22:55.058Z,21.45
2023-05-15T08:28:39.848Z,21.75
2023-05-15T08:34:24.640Z,21.91
2023-05-15T08:40:09.974Z,22.23
2023-05-15T08:45:55.053Z,22.54
2023-05-15T08:51:39.691Z,22.86
2023-05-15T08:57:25.794Z,23.21
2023-05-15T09:03:13.810Z,23.1
2023-05-15T09:09:01.075Z,23.2
2023-05-15T09:14:45.967Z,23.29
2023-05-15T09:20:31.617Z,23.41
2023-05-15T09:26:16.291Z,23.5
2023-05-15T09:32:02.123Z,23.41
2023-05-15T09:37:46.970Z,23.44
2023-05-15T09:43:33.380Z,23.53
2023-05-15T09:49:18.115Z,23.53
2023-05-15T09:55:02.945Z,23.88
2023-05-15T10:00:49.535Z,24.05
2023-05-15T10:06:42.094Z,24.26
2023-05-15T10:12:28.138Z,24.35
2023-05-15T10:18:13.646Z,24.53
2023-05-15T10:23:59.390Z,24.71
2023-05-15T10:29:44.999Z,24.92
2023-05-15T10:35:30.107Z,25.04
2023-05-15T10:41:18.083Z,24.95
2023-05-15T10:47:03.481Z,24.83
2023-05-15T10:52:50.549Z,24.76
2023-05-15T10:58:35.176Z,24.58
2023-05-15T11:04:22.691Z,24.69
2023-05-15T11:10:13.874Z,24.84
2023-05-15T11:15:58.657Z,24.8
2023-05-15T11:21:53.792Z,25.15
2023-05-15T11:27:42.769Z,25.44
2023-05-15T11:33:29.338Z,25.34
2023-05-15T11:39:14.157Z,25.38
2023-05-15T11:44:59.393Z,25.48
2023-05-15T11:50:44.478Z,25.81
2023-05-15T11:56:29.385Z,25.87
2023-05-15T12:02:14.230Z,25.84
2023-05-15T12:07:59.087Z,25.89
2023-05-15T12:13:43.888Z,26.03
2023-05-15T12:19:32.979Z,26.11
2023-05-15T12:25:17.571Z,26.22
2023-05-15T12:31:02.427Z,26.5
2023-05-15T12:36:47.334Z,26.29
2023-05-15T12:42:36.766Z,26.16
2023-05-15T12:48:21.642Z,25.97
2023-05-15T12:54:06.457Z,26.29
2023-05-15T12:59:51.256Z,26.12
2023-05-15T13:05:36.828Z,26.39
2023-05-15T13:11:21.555Z,26.88
2023-05-15T13:17:06.140Z,26.64
2023-05-15T13:22:51.006Z,26.72
2023-05-15T13:28:35.892Z,26.99
2023-05-15T13:34:20.453Z,27.19
2023-05-15T13:40:07.916Z,27.66
2023-05-15T13:45:52.685Z,27.92
2023-05-15T13:51:37.511Z,27.62
2023-05-15T13:57:22.368Z,27.29
2023-05-15T14:03:06.991Z,26.86
2023-05-15T14:08:56.138Z,26.37
2023-05-15T14:14:41.055Z,25.98
2023-05-15T14:20:26.306Z,25.71
2023-05-15T14:26:12.598Z,25.5
2023-05-15T14:31:57.346Z,25.18
2023-05-15T14:37:42.191Z,24.82
2023-05-15T14:43:27.044Z,24.6
2023-05-15T14:49:11.783Z,24.54
2023-05-15T14:55:08.323Z,24.59
2023-05-15T15:00:52.437Z,24.36
2023-05-15T15:06:37.212Z,24.14
2023-05-15T15:12:21.988Z,24.03
2023-05-15T15:18:07.178Z,23.99
2023-05-15T15:23:52.382Z,23.93
2023-05-15T15:29:37.134Z,23.83
2023-05-15T15:35:21.993Z,23.73
2023-05-15T15:41:07.218Z,23.48
2023-05-15T15:46:52.022Z,23.34
2023-05-15T15:52:36.843Z,23.17
2023-05-15T15:58:21.406Z,23.14
2023-05-15T16:04:06.205Z,23.05
2023-05-15T16:10:00.140Z,23.01
2023-05-15T16:15:54.207Z,22.75
2023-05-15T16:21:39.944Z,22.57
2023-05-15T16:27:24.795Z,22.45
2023-05-15T16:33:09.464Z,22.4
2023-05-15T16:38:54.593Z,22.28
2023-05-15T16:44:39.397Z,22.19
2023-05-15T16:50:24.549Z,22.07
2023-05-15T16:56:10.369Z,21.97
2023-05-15T17:01:55.351Z,21.87
2023-05-15T17:07:40.852Z,21.78
2023-05-15T17:13:27.634Z,21.67
2023-05-15T17:19:12.592Z,21.57
2023-05-15T17:24:58.141Z,21.47
2023-05-15T17:30:42.929Z,21.36
2023-05-15T17:36:27.619Z,21.37
2023-05-15T17:42:12.399Z,21.31
2023-05-15T17:47:57.192Z,21.24
2023-05-15T17:53:42.464Z,21.14
2023-05-15T17:59:27.350Z,21.03
2023-05-15T18:05:12.207Z,20.91
2023-05-15T18:10:57.007Z,20.77
2023-05-15T18:16:45.668Z,20.64
2023-05-15T18:22:32.637Z,20.48
2023-05-15T18:28:17.708Z,20.36
2023-05-15T18:34:02.446Z,20.24
2023-05-15T18:39:47.208Z,20.16
2023-05-15T18:45:31.876Z,20.08
2023-05-15T18:51:16.591Z,19.93
2023-05-15T18:57:01.495Z,19.83
2023-05-15T19:02:47.187Z,19.73
2023-05-15T19:08:32.422Z,19.64
2023-05-15T19:14:17.699Z,19.59
2023-05-15T19:20:02.949Z,19.49
2023-05-15T19:25:47.757Z,19.4
2023-05-15T19:31:32.564Z,19.32
2023-05-15T19:37:17.848Z,19.21
2023-05-15T19:43:02.804Z,19.13
2023-05-15T19:48:48.561Z,19.08
2023-05-15T19:54:33.339Z,19.03
2023-05-15T20:00:19.580Z,18.98
2023-05-15T20:06:04.428Z,18.93
2023-05-15T20:11:49.132Z,18.92
2023-05-15T20:17:33.820Z,18.86
2023-05-15T20:23:20.141Z,18.81
2023-05-15T20:29:04.875Z,18.75
2023-05-15T20:34:49.708Z,18.71
2023-05-15T20:40:35.565Z,18.65
2023-05-15T20:46:20.490Z,18.64
2023-05-15T20:52:05.887Z,18.56
2023-05-15T20:57:50.755Z,18.49
2023-05-15T21:03:35.550Z,18.46
2023-05-15T21:09:20.754Z,18.42
2023-05-15T21:15:06.079Z,18.39
2023-05-15T21:20:50.782Z,18.35
2023-05-15T21:26:35.670Z,18.31
2023-05-15T21:32:20.443Z,18.25
2023-05-15T21:38:05.379Z,18.21
2023-05-15T21:43:50.313Z,18.2
2023-05-15T21:49:35.298Z,18.16
2023-05-15T21:55:22.089Z,18.1
2023-05-15T22:01:07.009Z,18.07
2023-05-15T22:06:51.668Z,18.03
2023-05-15T22:12:36.286Z,18.35
2023-05-15T22:18:20.992Z,18.19
2023-05-15T22:24:06.236Z,18.04
2023-05-15T22:29:51.120Z,17.95
2023-05-15T22:35:35.949Z,17.87
2023-05-15T22:41:20.715Z,17.84
2023-05-15T22:47:05.757Z,17.84
2023-05-15T22:52:50.558Z,17.83
2023-05-15T22:58:35.745Z,17.77
2023-05-15T23:04:20.550Z,17.72
2023-05-15T23:10:06.398Z,17.77
2023-05-15T23:15:51.283Z,17.76
2023-05-15T23:21:36.078Z,17.7
2023-05-15T23:27:20.879Z,17.64
2023-05-15T23:33:05.520Z,17.57
2023-05-15T23:38:50.668Z,17.53
2023-05-15T23:44:35.329Z,17.55
2023-05-15T23:50:20.297Z,17.5
2023-05-15T23:56:06.632Z,17.49
